Time;durP1;ratioP1;P1;durP2;ratioP2;P2;SDS_P1;SDS_P2;PMS_P1;PMS_P2;Temp;Humidity;BMP_temperature;BMP_pressure;BME280_temperature;BME280_humidity;BME280_pressure;Samples;Min_cycle;Max_cycle;Signal;HPM_P1;HPM_P2
2023/05/01 00:01:05;;;;;;;15.05;7.43;;;;;;;11.59;100.00;101762.34;5072022;28;20027;-46
2023/05/01 00:03:30;;;;;;;14.85;7.07;;;;;;;11.60;100.00;101757.78;5070847;28;20458;-48
2023/05/01 00:06:00;;;;;;;13.48;7.35;;;;;;;11.60;100.00;101752.38;5062141;28;20050;-46
2023/05/01 00:08:26;;;;;;;10.82;6.97;;;;;;;11.62;100.00;101748.50;5051946;28;20028;-46
2023/05/01 00:10:51;;;;;;;16.60;6.85;;;;;;;11.62;100.00;101745.81;5050240;28;20488;-44
2023/05/01 00:13:20;;;;;;;15.48;7.32;;;;;;;11.61;100.00;101749.53;5062990;28;20039;-46
2023/05/01 00:15:46;;;;;;;17.95;7.45;;;;;;;11.64;100.00;101748.34;5055037;28;20029;-48
2023/05/01 00:18:13;;;;;;;13.00;6.93;;;;;;;11.64;100.00;101743.81;5072284;28;20032;-44
2023/05/01 00:20:40;;;;;;;16.00;7.78;;;;;;;11.66;100.00;101740.91;5070296;28;20051;-46
2023/05/01 00:23:07;;;;;;;12.52;7.38;;;;;;;11.70;100.00;101736.06;5060730;28;20025;-44
2023/05/01 00:25:33;;;;;;;15.68;6.85;;;;;;;11.73;100.00;101736.56;5051291;28;20024;-46
2023/05/01 00:28:02;;;;;;;18.33;8.93;;;;;;;11.75;100.00;101728.31;5054601;28;20440;-43
2023/05/01 00:30:27;;;;;;;14.85;7.85;;;;;;;11.74;100.00;101726.59;5070967;28;20082;-46
2023/05/01 00:32:52;;;;;;;14.50;8.18;;;;;;;11.74;100.00;101726.59;5070246;28;20025;-49
2023/05/01 00:35:18;;;;;;;17.98;8.45;;;;;;;11.73;100.00;101722.22;5050261;28;20037;-45
2023/05/01 00:37:43;;;;;;;14.57;7.55;;;;;;;11.72;100.00;101729.50;5059695;28;20029;-45
2023/05/01 00:40:09;;;;;;;19.13;8.05;;;;;;;11.74;100.00;101729.31;5069311;28;20025;-44
2023/05/01 00:42:38;;;;;;;16.92;8.30;;;;;;;11.80;100.00;101726.78;5070669;28;20371;-43
2023/05/01 00:45:05;;;;;;;15.20;8.35;;;;;;;11.84;100.00;101713.78;5069856;28;20033;-45
2023/05/01 00:47:31;;;;;;;15.70;8.27;;;;;;;11.85;100.00;101707.41;5070988;28;20441;-43
2023/05/01 00:49:56;;;;;;;12.77;7.63;;;;;;;11.81;100.00;101703.34;5053361;28;20048;-47
2023/05/01 00:52:23;;;;;;;14.95;8.23;;;;;;;11.74;100.00;101695.09;5071201;28;20025;-45
2023/05/01 00:54:51;;;;;;;15.17;8.17;;;;;;;11.76;100.00;101693.06;5015863;28;1097330;-44
2023/05/01 00:57:20;;;;;;;15.85;8.48;;;;;;;11.76;100.00;101687.66;5070947;28;20032;-47
2023/05/01 00:59:46;;;;;;;16.70;8.48;;;;;;;11.75;100.00;101677.06;5070207;28;20040;-45
2023/05/01 01:02:12;;;;;;;16.65;9.73;;;;;;;11.78;100.00;101674.03;5072358;28;20028;-45
2023/05/01 01:04:40;;;;;;;16.52;8.48;;;;;;;11.77;100.00;101661.53;5059106;28;20458;-44
2023/05/01 01:07:38;;;;;;;14.98;8.27;;;;;;;11.76;100.00;101655.31;5058087;28;20060;-47
2023/05/01 01:10:40;;;;;;;12.98;8.63;;;;;;;11.60;100.00;101661.56;5054198;28;20091;-48
2023/05/01 01:13:11;;;;;;;20.13;9.20;;;;;;;11.47;100.00;101655.81;5057743;28;20041;-44
2023/05/01 01:15:43;;;;;;;15.50;8.98;;;;;;;11.46;100.00;101653.31;5066395;28;20052;-45
2023/05/01 01:18:11;;;;;;;16.17;8.52;;;;;;;11.48;100.00;101652.13;5070752;28;20024;-47
2023/05/01 01:20:50;;;;;;;16.98;9.25;;;;;;;11.48;100.00;101660.22;5060159;28;20055;-44
2023/05/01 01:23:19;;;;;;;19.60;9.10;;;;;;;11.43;100.00;101643.72;5051088;28;20029;-44
2023/05/01 01:25:53;;;;;;;22.73;9.35;;;;;;;11.37;100.00;101647.06;5054336;28;20036;-48
2023/05/01 01:28:51;;;;;;;15.88;8.32;;;;;;;11.37;100.00;101642.53;5070574;28;20028;-46
2023/05/01 01:31:21;;;;;;;15.30;8.80;;;;;;;11.36;100.00;101637.28;5060714;28;20475;-44
2023/05/01 01:34:08;;;;;;;14.77;8.40;;;;;;;11.35;100.00;101641.84;5050348;28;20128;-46
2023/05/01 01:36:39;;;;;;;18.10;9.38;;;;;;;11.31;100.00;101628.88;5054995;28;20459;-44
2023/05/01 01:39:29;;;;;;;16.30;8.85;;;;;;;11.30;100.00;101635.28;5053957;28;20079;-45
2023/05/01 01:41:56;;;;;;;18.15;9.50;;;;;;;11.30;100.00;101632.59;5049038;28;20025;-46
2023/05/01 01:44:29;;;;;;;14.82;8.77;;;;;;;11.33;100.00;101626.84;5064572;28;20115;-46
2023/05/01 01:46:55;;;;;;;12.80;7.53;;;;;;;11.37;100.00;101623.66;5057350;28;20528;-47
2023/05/01 01:49:24;;;;;;;15.85;9.10;;;;;;;11.34;100.00;101618.59;5067626;28;20029;-43
2023/05/01 01:51:50;;;;;;;11.25;8.10;;;;;;;11.28;100.00;101615.72;5067429;28;20025;-43
2023/05/01 01:54:19;;;;;;;14.27;8.68;;;;;;;11.28;100.00;101608.47;5065578;28;20409;-43
2023/05/01 01:56:45;;;;;;;14.73;8.45;;;;;;;11.30;100.00;101611.84;5050049;28;20463;-45
2023/05/01 01:59:10;;;;;;;13.88;8.23;;;;;;;11.27;100.00;101603.25;5050188;28;20151;-45
2023/05/01 02:01:38;;;;;;;14.73;8.38;;;;;;;11.22;100.00;101598.38;5064280;28;20044;-44
2023/05/01 02:04:04;;;;;;;14.75;7.60;;;;;;;11.25;100.00;101602.59;5049541;28;20029;-47
2023/05/01 02:06:30;;;;;;;15.48;8.25;;;;;;;11.23;100.00;101596.53;5057806;28;20054;-47
2023/05/01 02:08:56;;;;;;;13.82;7.97;;;;;;;11.17;100.00;101598.88;5069268;28;20711;-46
2023/05/01 02:11:23;;;;;;;16.10;8.63;;;;;;;11.17;100.00;101592.66;5066710;28;20111;-46
2023/05/01 02:13:50;;;;;;;11.63;8.20;;;;;;;11.19;100.00;101582.56;5058807;28;20059;-45
2023/05/01 02:16:16;;;;;;;16.05;8.52;;;;;;;11.17;100.00;101585.41;5057645;28;20036;-46
2023/05/01 02:18:43;;;;;;;14.93;8.52;;;;;;;11.14;100.00;101580.38;5068320;28;20044;-45
2023/05/01 02:21:09;;;;;;;15.70;8.50;;;;;;;11.12;100.00;101577.00;5065691;28;20025;-45
2023/05/01 02:23:35;;;;;;;18.83;8.52;;;;;;;11.10;100.00;101579.00;5032579;28;20025;-46
2023/05/01 02:26:02;;;;;;;11.43;7.75;;;;;;;11.08;100.00;101570.22;5059378;28;20105;-45
2023/05/01 02:28:28;;;;;;;14.05;8.25;;;;;;;11.06;100.00;101577.66;5068167;28;20024;-46
2023/05/01 02:30:54;;;;;;;15.43;8.00;;;;;;;11.07;100.00;101565.88;5051086;28;20029;-46
2023/05/01 02:33:19;;;;;;;14.77;8.13;;;;;;;11.09;100.00;101561.16;5051061;28;20040;-46
2023/05/01 02:35:48;;;;;;;15.02;7.88;;;;;;;11.09;100.00;101561.16;5064365;28;20044;-44
2023/05/01 02:38:15;;;;;;;13.27;7.95;;;;;;;11.05;100.00;101559.81;5063878;28;20190;-45
2023/05/01 02:40:45;;;;;;;15.80;8.05;;;;;;;11.04;100.00;101560.00;5049575;28;20071;-48
2023/05/01 02:43:12;;;;;;;13.88;7.55;;;;;;;11.05;100.00;101558.97;5055557;28;20390;-46
2023/05/01 02:45:39;;;;;;;15.80;8.00;;;;;;;11.02;100.00;101562.84;5061673;28;20082;-46
2023/05/01 02:48:06;;;;;;;15.85;8.20;;;;;;;10.99;100.00;101553.22;5067252;28;20116;-49
2023/05/01 02:50:32;;;;;;;11.63;7.55;;;;;;;11.02;100.00;101551.22;5050835;28;20041;-44
2023/05/01 02:52:58;;;;;;;13.38;7.75;;;;;;;10.96;100.00;101552.75;5059892;28;20056;-44
2023/05/01 02:55:25;;;;;;;13.80;7.65;;;;;;;10.96;100.00;101544.66;5068808;28;20037;-47
2023/05/01 02:57:50;;;;;;;12.93;8.20;;;;;;;10.96;100.00;101548.19;5058346;28;20032;-46
2023/05/01 03:00:17;;;;;;;13.30;7.35;;;;;;;10.92;100.00;101543.28;5057211;28;20021;-47
2023/05/01 03:02:43;;;;;;;19.58;8.50;;;;;;;10.94;100.00;101544.81;5046156;28;20482;-43
2023/05/01 03:05:09;;;;;;;12.32;7.40;;;;;;;10.94;100.00;101536.72;5048293;28;20029;-44
2023/05/01 03:07:34;;;;;;;16.58;8.25;;;;;;;10.97;100.00;101540.94;5054690;28;20484;-44
2023/05/01 03:10:05;;;;;;;14.20;7.38;;;;;;;10.95;100.00;101532.19;5067295;28;20470;-45
2023/05/01 03:12:30;;;;;;;15.73;7.80;;;;;;;10.92;100.00;101533.34;5067849;28;20045;-47
2023/05/01 03:14:56;;;;;;;14.77;7.60;;;;;;;10.93;100.00;101526.97;5048597;28;20026;-45
2023/05/01 03:17:21;;;;;;;13.60;7.65;;;;;;;10.92;100.00;101517.19;5048441;28;20047;-45
2023/05/01 03:19:47;;;;;;;15.98;8.60;;;;;;;10.93;100.00;101515.38;5052924;28;20051;-45
2023/05/01 03:22:13;;;;;;;17.95;8.57;;;;;;;10.91;100.00;101526.31;5050086;28;20037;-44
2023/05/01 03:24:38;;;;;;;12.63;8.27;;;;;;;10.94;100.00;101511.66;5047997;28;20036;-43
2023/05/01 03:27:04;;;;;;;15.70;7.75;;;;;;;10.94;100.00;101511.66;5048158;28;20035;-46
2023/05/01 03:29:30;;;;;;;12.48;7.32;;;;;;;10.95;100.00;101511.50;5050205;28;20032;-45
2023/05/01 03:31:56;;;;;;;11.68;7.25;;;;;;;10.97;100.00;101497.84;5050204;28;20104;-45
2023/05/01 03:34:22;;;;;;;12.18;6.75;;;;;;;10.98;100.00;101502.25;5049231;28;20025;-45
2023/05/01 03:36:47;;;;;;;19.05;7.00;;;;;;;10.98;100.00;101499.56;5048610;28;20098;-47
2023/05/01 03:39:13;;;;;;;15.13;7.45;;;;;;;10.93;100.00;101496.53;5050029;28;20124;-47
2023/05/01 03:41:39;;;;;;;18.60;7.60;;;;;;;10.93;100.00;101497.34;5050168;28;20033;-46
2023/05/01 03:44:04;;;;;;;12.90;7.38;;;;;;;10.93;100.00;101496.53;5052258;28;20108;-46
2023/05/01 03:46:30;;;;;;;15.32;7.28;;;;;;;10.95;100.00;101503.44;5062736;28;20473;-47
2023/05/01 03:48:55;;;;;;;12.40;7.20;;;;;;;11.00;100.00;101494.81;5054998;28;20630;-44
2023/05/01 03:51:21;;;;;;;14.23;7.60;;;;;;;11.03;100.00;101496.31;5058280;28;20469;-45
2023/05/01 03:53:46;;;;;;;14.13;7.45;;;;;;;11.07;100.00;101498.53;5060309;28;20109;-46
2023/05/01 03:56:11;;;;;;;12.88;6.75;;;;;;;11.09;100.00;101490.28;5072017;28;20024;-48
2023/05/01 03:58:37;;;;;;;18.60;7.60;;;;;;;11.08;100.00;101494.81;5071552;28;20144;-44
2023/05/01 04:01:02;;;;;;;14.32;7.45;;;;;;;11.09;100.00;101488.44;5064128;28;20522;-47
2023/05/01 04:03:28;;;;;;;17.15;7.10;;;;;;;11.10;100.00;101492.78;5045337;28;20036;-47
2023/05/01 04:05:54;;;;;;;12.43;6.90;;;;;;;11.11;100.00;101483.72;5053208;28;20445;-43
2023/05/01 04:08:19;;;;;;;16.88;7.65;;;;;;;11.10;100.00;101479.31;5055643;28;20025;-45
2023/05/01 04:10:44;;;;;;;18.70;7.65;;;;;;;11.11;100.00;101481.03;5052262;28;20475;-48
2023/05/01 04:13:10;;;;;;;14.70;7.55;;;;;;;11.11;100.00;101480.16;5063757;28;20036;-46
2023/05/01 04:15:37;;;;;;;14.85;7.43;;;;;;;11.14;100.00;101478.00;5049058;28;20123;-46
2023/05/01 04:18:03;;;;;;;16.23;7.57;;;;;;;11.19;100.00;101478.31;5050287;28;20053;-46
2023/05/01 04:20:28;;;;;;;15.27;7.68;;;;;;;11.20;100.00;101476.47;5050579;28;20036;-46
2023/05/01 04:22:54;;;;;;;18.20;6.97;;;;;;;11.15;100.00;101474.28;5050339;28;20037;-42
2023/05/01 04:25:19;;;;;;;15.82;6.57;;;;;;;11.17;100.00;101479.50;5053273;28;20089;-45
2023/05/01 04:27:46;;;;;;;14.75;7.05;;;;;;;11.14;100.00;101472.59;5050886;28;20513;-43
2023/05/01 04:30:12;;;;;;;18.13;7.20;;;;;;;11.17;100.00;101472.25;5053801;28;20485;-48
2023/05/01 04:32:37;;;;;;;11.93;6.90;;;;;;;11.15;100.00;101463.50;5055576;28;20037;-46
2023/05/01 04:35:03;;;;;;;13.45;6.88;;;;;;;11.19;100.00;101464.84;5059094;28;20219;-44
2023/05/01 04:37:29;;;;;;;18.58;6.68;;;;;;;11.20;100.00;101466.53;5069730;28;20036;-45
2023/05/01 04:39:54;;;;;;;11.05;7.30;;;;;;;11.21;100.00;101462.81;5047741;28;20389;-45
2023/05/01 04:42:20;;;;;;;16.45;7.38;;;;;;;11.18;100.00;101465.00;5059431;28;20099;-50
2023/05/01 04:44:46;;;;;;;21.83;7.40;;;;;;;11.17;100.00;101466.88;5049651;28;20388;-47
2023/05/01 04:47:11;;;;;;;13.90;6.55;;;;;;;11.23;100.00;101469.88;5047683;28;20021;-47
2023/05/01 04:49:37;;;;;;;22.40;7.25;;;;;;;11.24;100.00;101460.78;5056193;28;20043;-45
2023/05/01 04:52:02;;;;;;;15.05;7.40;;;;;;;11.29;100.00;101458.41;5064896;28;20482;-44
2023/05/01 04:54:27;;;;;;;15.52;6.70;;;;;;;11.37;100.00;101459.25;5065137;28;20406;-45
2023/05/01 04:56:53;;;;;;;13.73;6.15;;;;;;;11.33;100.00;101455.22;5065521;28;20399;-48
2023/05/01 04:59:18;;;;;;;21.05;7.55;;;;;;;11.34;100.00;101461.44;5052634;28;20048;-43
2023/05/01 05:01:43;;;;;;;12.52;6.60;;;;;;;11.36;100.00;101462.94;5040025;28;20047;-49
2023/05/01 05:04:09;;;;;;;20.55;6.65;;;;;;;11.36;100.00;101459.41;5069831;28;20154;-46
2023/05/01 05:06:34;;;;;;;15.55;6.47;;;;;;;11.37;100.00;101461.09;5070724;28;20038;-45
2023/05/01 05:09:00;;;;;;;14.90;6.30;;;;;;;11.31;100.00;101461.78;5072169;28;20449;-45
2023/05/01 05:11:25;;;;;;;14.93;6.53;;;;;;;11.38;100.00;101466.31;5061420;28;20028;-45
2023/05/01 05:13:51;;;;;;;20.80;6.85;;;;;;;11.37;100.00;101467.34;5069943;28;20027;-46
2023/05/01 05:16:16;;;;;;;16.55;6.68;;;;;;;11.42;100.00;101454.16;5054790;28;20021;-45
2023/05/01 05:18:42;;;;;;;14.52;5.90;;;;;;;11.45;100.00;101458.38;5059873;28;20032;-48
2023/05/01 05:21:09;;;;;;;15.07;6.80;;;;;;;11.45;100.00;101462.94;5062414;28;20020;-43
2023/05/01 05:23:35;;;;;;;11.80;6.43;;;;;;;11.43;100.00;101455.03;5056897;28;20598;-44
2023/05/01 05:26:00;;;;;;;17.02;6.10;;;;;;;11.45;100.00;101460.22;5071429;28;20091;-46
2023/05/01 05:28:29;;;;;;;14.35;6.10;;;;;;;11.46;100.00;101460.06;5069171;28;20033;-47
2023/05/01 05:30:55;;;;;;;16.60;5.72;;;;;;;11.45;100.00;101460.22;5065774;28;20032;-44
2023/05/01 05:33:23;;;;;;;19.35;6.55;;;;;;;11.49;100.00;101469.66;5044447;28;20032;-46
2023/05/01 05:35:49;;;;;;;;;;;;;;;11.48;100.00;101474.22;5070181;28;20024;-46
2023/05/01 05:38:15;;;;;;;20.02;6.15;;;;;;;11.60;100.00;101467.44;5060661;28;21129;-43
2023/05/01 05:40:40;;;;;;;10.10;6.00;;;;;;;11.62;100.00;101456.50;5054263;28;20132;-44
2023/05/01 05:43:06;;;;;;;15.73;5.78;;;;;;;11.57;100.00;101457.00;5066802;28;20574;-46
2023/05/01 05:45:35;;;;;;;12.23;6.30;;;;;;;11.62;100.00;101460.03;5066563;28;20033;-46
2023/05/01 05:48:01;;;;;;;14.85;5.72;;;;;;;11.61;100.00;101450.25;5049302;28;20555;-43
2023/05/01 05:50:26;;;;;;;17.80;6.25;;;;;;;11.62;100.00;101449.22;5066141;28;20111;-44
2023/05/01 05:52:52;;;;;;;10.82;6.00;;;;;;;11.63;100.00;101448.22;5064926;28;20072;-46
2023/05/01 05:55:17;;;;;;;15.75;6.38;;;;;;;11.65;100.00;101446.19;5061609;28;20067;-44
2023/05/01 05:57:43;;;;;;;16.25;6.50;;;;;;;11.71;100.00;101446.50;5065594;28;20044;-44
2023/05/01 06:00:09;;;;;;;13.75;6.20;;;;;;;11.75;100.00;101448.69;5062835;28;20032;-45
2023/05/01 06:02:35;;;;;;;17.27;6.55;;;;;;;11.71;100.00;101441.94;5057356;28;20078;-46
2023/05/01 06:05:00;;;;;;;13.15;5.88;;;;;;;11.79;100.00;101444.59;5062546;28;20032;-47
2023/05/01 06:07:27;;;;;;;14.82;6.53;;;;;;;11.84;100.00;101444.09;5061544;28;20063;-44
2023/05/01 06:09:52;;;;;;;12.02;6.25;;;;;;;11.83;100.00;101443.25;5062789;28;20067;-43
2023/05/01 06:12:17;;;;;;;17.88;6.68;;;;;;;11.85;100.00;101445.78;5064199;28;20032;-46
2023/05/01 06:14:43;;;;;;;12.75;6.32;;;;;;;11.84;100.00;101441.38;5063761;28;20441;-45
2023/05/01 06:17:08;;;;;;;16.05;6.20;;;;;;;11.83;100.00;101445.94;5061994;28;20042;-44
2023/05/01 06:19:34;;;;;;;12.07;5.82;;;;;;;11.81;100.00;101441.75;5061391;28;20035;-44
2023/05/01 06:22:00;;;;;;;14.45;6.35;;;;;;;11.83;100.00;101445.13;5048953;28;20466;-43
2023/05/01 06:24:26;;;;;;;14.32;5.78;;;;;;;11.83;100.00;101450.50;5059023;28;20115;-46
2023/05/01 06:26:52;;;;;;;14.45;6.53;;;;;;;11.86;100.00;101450.19;5066344;28;20111;-48
2023/05/01 06:29:17;;;;;;;15.02;6.57;;;;;;;11.88;100.00;101456.25;5064483;28;20037;-47
2023/05/01 06:31:43;;;;;;;23.92;7.47;;;;;;;11.94;100.00;101452.84;5059555;28;20107;-45
2023/05/01 06:34:08;;;;;;;15.32;6.10;;;;;;;12.04;100.00;101450.78;5066286;28;20053;-46
2023/05/01 06:36:33;;;;;;;17.45;6.53;;;;;;;12.15;100.00;101454.09;5066942;28;20029;-45
2023/05/01 06:38:59;;;;;;;12.35;5.72;;;;;;;12.20;100.00;101444.44;5067192;28;20489;-45
2023/05/01 06:41:25;;;;;;;16.23;6.35;;;;;;;12.22;100.00;101449.66;5067233;28;20028;-46
2023/05/01 06:43:51;;;;;;;18.40;7.22;;;;;;;12.24;100.00;101436.81;5066645;28;20187;-43
2023/05/01 06:46:16;;;;;;;14.13;6.68;;;;;;;12.32;100.00;101442.16;5066147;28;20123;-46
2023/05/01 06:48:42;;;;;;;19.00;5.95;;;;;;;12.42;100.00;101444.63;5063493;28;20462;-46
2023/05/01 06:51:07;;;;;;;23.50;7.35;;;;;;;12.34;100.00;101447.38;5064253;28;20028;-43
2023/05/01 06:53:32;;;;;;;14.98;6.57;;;;;;;12.28;100.00;101444.38;5058904;28;20048;-45
2023/05/01 06:55:58;;;;;;;16.00;5.97;;;;;;;12.36;100.00;101443.50;5064577;28;20024;-44
2023/05/01 06:58:23;;;;;;;21.90;7.53;;;;;;;12.44;100.00;101442.59;5066905;28;20031;-43
2023/05/01 07:00:49;;;;;;;15.98;6.47;;;;;;;12.43;100.00;101449.03;5067224;28;20017;-44
2023/05/01 07:03:14;;;;;;;15.65;6.93;;;;;;;12.40;100.00;101450.22;5067425;28;20028;-43
2023/05/01 07:05:39;;;;;;;14.63;7.38;;;;;;;12.39;100.00;101451.22;5063295;28;20458;-46
2023/05/01 07:08:05;;;;;;;11.82;6.10;;;;;;;12.51;100.00;101448.97;5049728;28;20043;-47
2023/05/01 07:10:31;;;;;;;15.65;6.55;;;;;;;12.60;100.00;101445.19;5066176;28;20048;-45
2023/05/01 07:12:56;;;;;;;13.32;5.93;;;;;;;12.70;100.00;101447.63;5067447;28;20028;-47
2023/05/01 07:15:22;;;;;;;10.57;6.50;;;;;;;12.74;100.00;101449.81;5065500;28;20045;-45
2023/05/01 07:17:49;;;;;;;15.15;6.00;;;;;;;12.73;100.00;101441.88;5066588;28;20446;-45
2023/05/01 07:20:15;;;;;;;16.02;6.53;;;;;;;12.77;100.00;101443.19;5051598;28;20130;-50
2023/05/01 07:22:41;;;;;;;13.02;5.85;;;;;;;12.81;100.00;101441.81;5070687;28;20032;-47
2023/05/01 07:25:07;;;;;;;16.27;6.78;;;;;;;12.89;100.00;101446.28;5070760;28;20029;-46
2023/05/01 07:27:32;;;;;;;16.05;7.07;;;;;;;12.90;100.00;101438.03;5070232;28;20032;-45
2023/05/01 07:29:59;;;;;;;17.92;6.85;;;;;;;13.08;100.00;101436.81;5069922;28;20028;-45
2023/05/01 07:32:25;;;;;;;24.10;9.52;;;;;;;13.06;100.00;101442.44;5070639;28;20024;-45
2023/05/01 07:34:50;;;;;;;28.08;8.13;;;;;;;13.29;100.00;101442.38;5070127;28;20048;-43
2023/05/01 07:37:17;;;;;;;15.48;6.50;;;;;;;13.58;100.00;101443.41;5069842;28;20062;-42
2023/05/01 07:39:42;;;;;;;14.82;6.93;;;;;;;13.64;100.00;101444.53;5067140;28;20024;-44
2023/05/01 07:42:08;;;;;;;20.60;6.75;;;;;;;13.48;100.00;101449.13;5070262;28;20029;-44
2023/05/01 07:44:33;;;;;;;20.70;8.07;;;;;;;13.39;100.00;101448.34;5066768;28;20037;-44
2023/05/01 07:47:03;;;;;;;15.02;6.47;;;;;;;13.38;100.00;101452.09;5064388;28;20044;-43
2023/05/01 07:49:29;;;;;;;17.17;7.53;;;;;;;13.42;100.00;101447.16;5070816;28;20043;-45
2023/05/01 07:51:54;;;;;;;19.02;7.25;;;;;;;13.48;100.00;101451.84;5069696;28;20024;-44
2023/05/01 07:54:21;;;;;;;19.40;7.05;;;;;;;13.65;100.00;101441.66;5065895;28;20044;-45
2023/05/01 07:56:47;;;;;;;15.10;7.10;;;;;;;13.61;100.00;101445.75;5070640;28;20171;-46
2023/05/01 07:59:13;;;;;;;21.88;7.60;;;;;;;13.57;100.00;101447.16;5070664;28;20541;-49
2023/05/01 08:01:40;;;;;;;19.63;7.57;;;;;;;13.87;100.00;101449.84;5069341;28;20025;-46
2023/05/01 08:04:05;;;;;;;14.23;7.15;;;;;;;14.19;100.00;101449.41;5070874;28;20032;-46
2023/05/01 08:06:30;;;;;;;17.42;7.07;;;;;;;14.06;100.00;101454.66;5070422;28;20405;-44
2023/05/01 08:08:56;;;;;;;16.92;6.97;;;;;;;13.95;100.00;101455.13;5070374;28;20021;-46
2023/05/01 08:11:21;;;;;;;20.02;7.25;;;;;;;14.04;100.00;101457.56;5069909;28;20024;-49
2023/05/01 08:13:47;;;;;;;20.60;7.55;;;;;;;14.18;100.00;101453.13;5051411;28;20040;-46
2023/05/01 08:16:12;;;;;;;14.80;7.80;;;;;;;14.06;100.00;101462.78;5068605;28;20128;-47
2023/05/01 08:18:37;;;;;;;17.90;7.30;;;;;;;14.00;100.00;101460.81;5068787;28;20492;-46
2023/05/01 08:21:03;;;;;;;16.10;7.18;;;;;;;13.70;100.00;101470.84;5068912;28;20025;-46
2023/05/01 08:23:28;;;;;;;17.55;7.88;;;;;;;13.46;100.00;101469.25;5069943;28;20113;-47
2023/05/01 08:25:54;;;;;;;14.55;7.47;;;;;;;13.39;100.00;101470.00;5069555;28;20106;-45
2023/05/01 08:28:20;;;;;;;20.02;7.90;;;;;;;13.42;100.00;101471.47;5068305;28;20104;-44
2023/05/01 08:30:45;;;;;;;19.73;8.45;;;;;;;13.42;100.00;101474.19;5067758;28;20013;-45
2023/05/01 08:33:10;;;;;;;16.75;7.80;;;;;;;13.41;100.00;101471.69;5069943;28;20488;-45
2023/05/01 08:35:36;;;;;;;20.00;8.98;;;;;;;13.35;100.00;101474.09;5069335;28;20048;-46
2023/05/01 08:38:01;;;;;;;19.23;8.35;;;;;;;13.37;100.00;101472.03;5068479;28;20048;-43
2023/05/01 08:40:31;;;;;;;18.95;8.45;;;;;;;13.30;100.00;101475.69;5069037;28;20031;-48
2023/05/01 08:42:57;;;;;;;24.40;9.20;;;;;;;13.29;100.00;101480.22;5069676;28;20102;-44
2023/05/01 08:45:23;;;;;;;22.80;9.02;;;;;;;13.30;100.00;101481.09;5069322;28;20136;-45
2023/05/01 08:47:49;;;;;;;27.55;9.98;;;;;;;13.39;100.00;101490.78;5069956;28;20052;-43
2023/05/01 08:50:16;;;;;;;23.17;9.48;;;;;;;13.41;100.00;101480.63;5069097;28;20137;-46
2023/05/01 08:52:42;;;;;;;34.97;9.85;;;;;;;13.39;100.00;101490.78;5069491;28;20052;-45
2023/05/01 08:55:17;;;;;;;20.73;9.25;;;;;;;13.38;100.00;101489.13;5069598;28;20033;-48
2023/05/01 08:57:46;;;;;;;25.55;9.43;;;;;;;13.37;100.00;101488.25;5066278;28;20031;-46
2023/05/01 09:00:18;;;;;;;26.15;9.35;;;;;;;13.43;100.00;101494.81;5068313;28;20012;-47
2023/05/01 09:02:45;;;;;;;20.77;10.05;;;;;;;13.46;100.00;101499.84;5061191;28;20066;-44
2023/05/01 09:05:11;;;;;;;23.77;10.02;;;;;;;13.42;100.00;101512.03;5059944;28;20430;-47
2023/05/01 09:07:37;;;;;;;28.38;11.32;;;;;;;13.27;100.00;101514.75;5051391;28;20064;-50
2023/05/01 09:10:03;;;;;;;22.85;10.73;;;;;;;13.15;100.00;101517.00;5069321;28;20055;-46
2023/05/01 09:12:28;;;;;;;26.83;10.40;;;;;;;13.08;100.00;101523.31;5068840;28;20474;-44
2023/05/01 09:14:55;;;;;;;27.05;11.90;;;;;;;13.10;100.00;101523.97;5051182;28;20031;-46
2023/05/01 09:17:21;;;;;;;23.40;10.90;;;;;;;12.99;100.00;101529.81;5062609;28;20035;-46
2023/05/01 09:19:48;;;;;;;25.08;11.02;;;;;;;12.90;100.00;101540.69;5065802;28;20028;-46
2023/05/01 09:22:14;;;;;;;26.77;11.45;;;;;;;12.82;100.00;101546.16;5067183;28;20016;-48
2023/05/01 09:24:40;;;;;;;31.52;11.68;;;;;;;12.68;100.00;101555.00;5051509;28;20035;-46
2023/05/01 09:27:06;;;;;;;28.00;13.35;;;;;;;12.60;100.00;101566.69;5068056;28;20020;-44
2023/05/01 09:29:43;;;;;;;36.00;13.68;;;;;;;12.50;100.00;101583.09;5055225;28;20036;-47
2023/05/01 09:32:29;;;;;;;36.50;13.80;;;;;;;12.45;100.00;101579.25;5049983;28;20021;-51
2023/05/01 09:35:08;;;;;;;28.80;12.93;;;;;;;12.42;100.00;101585.00;5050665;28;20379;-47
2023/05/01 09:37:34;;;;;;;29.45;13.75;;;;;;;12.40;100.00;101574.41;5051683;28;20280;-47
2023/05/01 09:40:06;;;;;;;37.70;13.80;;;;;;;12.44;100.00;101578.41;5049889;28;20051;-52
2023/05/01 09:42:32;;;;;;;33.67;14.27;;;;;;;12.42;100.00;101575.06;5050583;28;20028;-49
2023/05/01 09:44:59;;;;;;;30.35;14.20;;;;;;;12.51;100.00;101583.97;5051427;28;20021;-49
2023/05/01 09:47:27;;;;;;;43.53;15.48;;;;;;;12.56;100.00;101586.13;5051127;28;20112;-52
2023/05/01 09:49:55;;;;;;;34.28;15.93;;;;;;;12.58;100.00;101589.50;5051414;28;20025;-50
2023/05/01 09:52:21;;;;;;;32.42;15.40;;;;;;;12.59;100.00;101588.50;5051456;28;20045;-53
2023/05/01 09:54:46;;;;;;;37.47;15.65;;;;;;;12.66;100.00;101589.44;5049647;28;20048;-49
2023/05/01 09:57:12;;;;;;;40.63;15.82;;;;;;;12.70;100.00;101580.81;5032628;28;20428;-50
2023/05/01 09:59:38;;;;;;;38.00;14.98;;;;;;;12.74;100.00;101584.84;5050982;28;20033;-48
2023/05/01 10:02:03;;;;;;;38.63;13.57;;;;;;;12.85;100.00;101569.22;5050748;28;20024;-45
2023/05/01 10:04:35;;;;;;;37.83;14.77;;;;;;;12.90;100.00;101573.09;5050907;28;20032;-47
2023/05/01 10:07:12;;;;;;;36.47;14.73;;;;;;;12.93;100.00;101578.16;5049346;28;20029;-45
2023/05/01 10:09:37;;;;;;;43.57;14.67;;;;;;;12.92;100.00;101581.84;5049888;28;20435;-43
2023/05/01 10:12:03;;;;;;;30.02;13.15;;;;;;;12.93;100.00;101588.94;5049184;28;20544;-45
2023/05/01 10:14:29;;;;;;;41.33;14.02;;;;;;;12.92;100.00;101576.44;5050805;28;20217;-44
2023/05/01 10:16:56;;;;;;;41.78;15.18;;;;;;;12.96;100.00;101569.69;5049256;28;20036;-46
2023/05/01 10:19:22;;;;;;;41.85;15.80;;;;;;;13.05;100.00;101570.44;5016484;28;20110;-45
2023/05/01 10:21:48;;;;;;;35.63;13.40;;;;;;;13.10;100.00;101575.31;5050550;28;20033;-44
2023/05/01 10:24:15;;;;;;;43.20;14.93;;;;;;;13.04;100.00;101574.19;5050476;28;20053;-46
2023/05/01 10:26:42;;;;;;;34.00;14.82;;;;;;;13.07;100.00;101581.09;5050384;28;20174;-47
2023/05/01 10:29:08;;;;;;;40.55;14.65;;;;;;;13.09;100.00;101588.00;5049012;28;20033;-46
2023/05/01 10:31:34;;;;;;;34.00;14.45;;;;;;;13.11;100.00;101585.09;5050459;28;20043;-46
2023/05/01 10:34:00;;;;;;;32.10;13.40;;;;;;;13.17;100.00;101582.53;5048888;28;20062;-45
2023/05/01 10:36:31;;;;;;;30.27;13.73;;;;;;;13.32;100.00;101579.91;5050726;28;20021;-50
2023/05/01 10:38:56;;;;;;;30.52;12.48;;;;;;;13.48;100.00;101583.47;5050974;28;20485;-46
2023/05/01 10:41:58;;;;;;;30.33;12.20;;;;;;;13.46;100.00;101577.44;5049513;28;20029;-47
2023/05/01 10:44:25;;;;;;;24.15;11.48;;;;;;;13.48;100.00;101575.34;5050177;28;20382;-44
2023/05/01 10:46:51;;;;;;;33.53;12.93;;;;;;;13.50;100.00;101571.44;5048916;28;20437;-43
2023/05/01 10:49:17;;;;;;;31.40;13.23;;;;;;;13.63;100.00;101572.69;5048853;28;20402;-44
2023/05/01 10:52:02;;;;;;;30.05;12.73;;;;;;;13.80;100.00;101563.41;5049376;28;20116;-46
2023/05/01 10:54:29;;;;;;;25.63;11.98;;;;;;;13.98;100.00;101574.69;5054701;28;20473;-44
2023/05/01 10:57:00;;;;;;;32.95;11.68;;;;;;;14.13;100.00;101568.44;5036886;28;20028;-46
2023/05/01 10:59:46;;;;;;;29.08;11.43;;;;;;;14.31;100.00;101570.75;5054561;28;20475;-45
2023/05/01 11:02:20;;;;;;;33.03;11.90;;;;;;;14.62;100.00;101565.94;5053873;28;20582;-44
2023/05/01 11:04:49;;;;;;;31.08;12.27;;;;;;;14.91;100.00;101561.47;5053538;28;20519;-46
2023/05/01 11:07:17;;;;;;;24.85;11.38;;;;;;;15.22;100.00;101554.84;5053326;28;20025;-46